sensor_id;sensor_type;location;lat;lon;timestamp;P1;durP1;ratioP1;P2;durP2;ratioP2
72645;SDS011;60687;53.876;10.674;2023-02-28T00:40:53;7.20;;;3.20;;
72645;SDS011;60687;53.876;10.674;2023-02-28T00:51:08;8.27;;;3.23;;
72645;SDS011;60687;53.876;10.674;2023-02-28T01:01:14;7.57;;;2.83;;
72645;SDS011;60687;53.876;10.674;2023-02-28T01:11:20;6.72;;;3.03;;
72645;SDS011;60687;53.876;10.674;2023-02-28T01:21:25;7.70;;;2.80;;
72645;SDS011;60687;53.876;10.674;2023-02-28T01:31:30;8.33;;;3.60;;
72645;SDS011;60687;53.876;10.674;2023-02-28T01:41:35;8.63;;;3.10;;
72645;SDS011;60687;53.876;10.674;2023-02-28T01:51:41;8.45;;;3.30;;
72645;SDS011;60687;53.876;10.674;2023-02-28T02:01:50;7.87;;;3.40;;
72645;SDS011;60687;53.876;10.674;2023-02-28T02:11:54;7.90;;;3.50;;
72645;SDS011;60687;53.876;10.674;2023-02-28T02:22:12;8.10;;;3.30;;
72645;SDS011;60687;53.876;10.674;2023-02-28T02:32:41;7.57;;;3.40;;
72645;SDS011;60687;53.876;10.674;2023-02-28T02:43:06;7.77;;;3.10;;
72645;SDS011;60687;53.876;10.674;2023-02-28T02:53:15;7.82;;;3.60;;
72645;SDS011;60687;53.876;10.674;2023-02-28T03:14:09;6.90;;;3.37;;
72645;SDS011;60687;53.876;10.674;2023-02-28T03:25:07;7.75;;;3.60;;
72645;SDS011;60687;53.876;10.674;2023-02-28T03:35:18;9.48;;;3.95;;
72645;SDS011;60687;53.876;10.674;2023-02-28T03:45:28;8.80;;;3.70;;
72645;SDS011;60687;53.876;10.674;2023-02-28T03:55:49;8.13;;;4.17;;
72645;SDS011;60687;53.876;10.674;2023-02-28T04:05:56;9.32;;;4.25;;
72645;SDS011;60687;53.876;10.674;2023-02-28T04:16:13;9.00;;;4.30;;
72645;SDS011;60687;53.876;10.674;2023-02-28T04:26:18;8.80;;;4.37;;
72645;SDS011;60687;53.876;10.674;2023-02-28T05:09:32;8.75;;;4.18;;
72645;SDS011;60687;53.876;10.674;2023-02-28T05:19:35;11.32;;;4.85;;
72645;SDS011;60687;53.876;10.674;2023-02-28T05:40:12;8.57;;;4.60;;
72645;SDS011;60687;53.876;10.674;2023-02-28T05:50:15;9.50;;;4.70;;
72645;SDS011;60687;53.876;10.674;2023-02-28T06:00:26;9.23;;;4.70;;
72645;SDS011;60687;53.876;10.674;2023-02-28T06:10:36;9.43;;;4.63;;
72645;SDS011;60687;53.876;10.674;2023-02-28T06:20:43;11.30;;;5.70;;
72645;SDS011;60687;53.876;10.674;2023-02-28T07:14:10;9.57;;;4.37;;
72645;SDS011;60687;53.876;10.674;2023-02-28T07:24:15;10.63;;;4.80;;
72645;SDS011;60687;53.876;10.674;2023-02-28T07:34:24;10.35;;;4.93;;
72645;SDS011;60687;53.876;10.674;2023-02-28T07:44:54;12.27;;;5.87;;
72645;SDS011;60687;53.876;10.674;2023-02-28T07:54:58;7.93;;;4.40;;
72645;SDS011;60687;53.876;10.674;2023-02-28T08:05:02;10.30;;;5.22;;
72645;SDS011;60687;53.876;10.674;2023-02-28T08:15:13;9.43;;;4.33;;
72645;SDS011;60687;53.876;10.674;2023-02-28T08:46:57;8.15;;;4.00;;
72645;SDS011;60687;53.876;10.674;2023-02-28T08:57:07;8.63;;;3.80;;
72645;SDS011;60687;53.876;10.674;2023-02-28T17:53:17;7.23;;;2.40;;
72645;SDS011;60687;53.876;10.674;2023-02-28T18:15:06;8.75;;;2.78;;
72645;SDS011;60687;53.876;10.674;2023-02-28T18:36:10;10.47;;;4.40;;
72645;SDS011;60687;53.876;10.674;2023-02-28T19:39:11;11.80;;;5.00;;
